Aérodrome :
LOGIN :

S'inscrire | Disclaimer

   EN    FR    IT 

 










Légende :    VFR   VFR Marginal   IFR   IFR Intensif   IFR Très Intensif
Visi : 
Plafond : 
>= 8 km
>= 3000ft
5 à 8 km
1000 à 3000 ft
1500m à 5 km
500 à 1000 ft
800 à 1500m
200 à 500 ft
< 800m
< 200 ft
Symboles :   Orages  Brouillard  Fortes neiges  Fortes précipitations  Vent > 20 kt
SIGMETs :   Divers  Orages  Givrage  Turbulence  Onde Orograph.  Cendres Volcan.






- Altitude de l'aérodrome : 33 ft
- Code IATA : MHZ


EGUN - RAF Mildenhall

DERNIER METAR :
  • 192156Z 21011KT 9999 BKN035 09/06 A2987 RMK SLPNO WND DATA ESTMD ALSTG ESTMD RVRNO

METARs EXPIRÉS :
  • 192058Z 21010G18KT 9999 BKN031 09/06 A2989 RMK SLPNO WND DATA ESTMD ALSTG ESTMD RVRNO .
  • 191956Z 21016G22KT 9999 BKN020 09/06 A2991 RMK SLP132 WND DATA ESTMD ALTSG ESTMD RVRNO

TAF TAF EGUN
Valide du 19 à 20h jusqu'au 21 à 02h UTC


191956Z 1920/2102 20015G25KT 9999 OVC030 QNH2993INS
TEMPO 1920/2001 OVC015
BECMG 2000/2001 22020G30KT 9999 BKN015 OVC030 620409 520005 QNH2970INS
BECMG 2008/2009 21025G35KT 9999 BKN015 520005 QNH2960INS
BECMG 2011/2012 21030G40KT 5000 RA BKN010 520005 QNH2956INS
BECMG 2014/2015 30020G30KT 8000 -SHRA BKN015 520005 QNH2971INS
BECMG 2017/2018 27015G25KT 9999 NSW SCT020 QNH2986INS TX10/2012Z TN04/2019Z



MET'MAP, la Météo Aéronautique d'un coup d'oeil ! - Copyright ORBIFLY Décembre 2007 - Disclaimer

ORBIFLY MET'MAP TEAM :

Programmation & Développement : Alexandra Zaïnal
Sur une idée originale de : Baudouin d'Aumeries
Assistance à la programmation : Marc-Olivier Méhu
Soutien technique & logistique : Manuel Goepfert

Contact : metmap@orbifly.com




SOURCES & CREDITS :

   NOAA